San Juan, PR (00924)

1:42 AM AST on September 24, 2014 (GMT -0400)
Manejo de Emergencias | Change Station
CLOSE
Current Station
Personal Weather Station
Location: Carolina, PR
Elevation: 40 ft
Nearby Weather Stations

Elev 40 ft 18.38 °N, 65.97 °W | Updated 9 minutes ago

Partly Cloudy
Partly Cloudy
76.6 °F
Feels Like 77 °F
N
0.0
Wind Variable Wind from West
Gusts 2.0 mph

Today
High -- | Low -- °F
--% Chance of Precip.
Yesterday
High -- | Low -- °F
Precip. -- in
6:13 AM 6:18 PM
Waning Crescent, 0% visible
Pressure 29.98 in
Visibility 10.0 miles
Clouds Few 2200 ft
Heat Index 77 °F
Dew Point 73 °F
Humidity 89%
Rainfall -999.00 in
Snow Depth Not available.
UV 0 out of 12
Pollen Not available.
Air Quality Not available.
Flu Activity Not available.
METAR TJSJ 240456Z 00000KT 10SM FEW022 27/25 A2998 RMK AO2 SLP150 T02720250

More Conditions Fewer Conditions

Pressure 29.98 in
Visibility 10.0 miles
Clouds Few 2200 ft
Heat Index 77 °F
Dew Point 73 °F
Humidity 89%
Rainfall -999.00 in
Snow Depth Not available.
UV 0 out of 12
Pollen Not available.
Air Quality Not available.
Flu Activity Not available.
METAR TJSJ 240456Z 00000KT 10SM FEW022 27/25 A2998 RMK AO2 SLP150 T02720250

More Conditions Fewer Conditions

10-Day Weather Forecast

Almanac

Astronomy

Sep. 24, 2014 Rise Set
Actual Time 6:13 AM AST 6:18 PM AST
Civil Twilight 5:51 AM AST 6:40 PM AST
Nautical Twilight 5:26 AM AST 7:05 PM AST
Astronomical Twilight 5:00 AM AST 7:30 PM AST
Moon 6:24 AM AST 6:36 PM AST
Length of Visible Light 12h 48m
Length of Day
12h 05m
Tomorrow will be 1m 2s shorter.
Waning Crescent, 0% of the Moon is Illuminated
Today
Waning Crescent
Sep 24
New
Oct 1
First Quarter
Oct 8
Full
Oct 15
Last Quarter

Community

WunderPhotos

Upload Photos

1,755,891 photos uploaded!

WunderBlogs® & News

Nearby

Snow Depth

Station Depth Elevation
No new snow has been reported.

Earthquake Activity

City Distance Mag. Time & Date
No recent earthquake activity has been reported nearby.
Minimum magnitude displayed is 2.5.

Coastal Water Temperatures

Place Temperature
San Juan, PR 84.9 °F
Mayaguez, PR 84.9 °F
Esperanza, PR 84.9 °F

Nearby Weather Stations